sensor_id;sensor_type;location;lat;lon;timestamp;P1;durP1;ratioP1;P2;durP2;ratioP2
37785;SDS011;23625;48.784;9.336;2023-06-04T00:02:23;16.17;;;7.68;;
37785;SDS011;23625;48.784;9.336;2023-06-04T00:04:49;14.23;;;6.72;;
37785;SDS011;23625;48.784;9.336;2023-06-04T00:07:15;12.40;;;7.63;;
37785;SDS011;23625;48.784;9.336;2023-06-04T00:09:40;11.60;;;6.75;;
37785;SDS011;23625;48.784;9.336;2023-06-04T00:12:06;15.45;;;7.63;;
37785;SDS011;23625;48.784;9.336;2023-06-04T00:14:32;14.35;;;6.90;;
37785;SDS011;23625;48.784;9.336;2023-06-04T00:16:58;17.92;;;8.32;;
37785;SDS011;23625;48.784;9.336;2023-06-04T00:19:23;14.18;;;7.03;;
37785;SDS011;23625;48.784;9.336;2023-06-04T00:21:49;10.80;;;6.80;;
37785;SDS011;23625;48.784;9.336;2023-06-04T00:24:16;12.52;;;7.60;;
37785;SDS011;23625;48.784;9.336;2023-06-04T00:26:41;13.85;;;7.47;;
37785;SDS011;23625;48.784;9.336;2023-06-04T00:29:07;16.20;;;7.32;;
37785;SDS011;23625;48.784;9.336;2023-06-04T00:31:33;15.50;;;7.30;;
37785;SDS011;23625;48.784;9.336;2023-06-04T00:33:58;16.08;;;6.32;;
37785;SDS011;23625;48.784;9.336;2023-06-04T00:36:24;13.52;;;6.72;;
37785;SDS011;23625;48.784;9.336;2023-06-04T00:38:49;13.32;;;6.72;;
37785;SDS011;23625;48.784;9.336;2023-06-04T00:41:15;14.52;;;6.95;;
37785;SDS011;23625;48.784;9.336;2023-06-04T00:43:41;16.80;;;6.47;;
37785;SDS011;23625;48.784;9.336;2023-06-04T00:46:10;13.32;;;6.43;;
37785;SDS011;23625;48.784;9.336;2023-06-04T00:48:43;12.60;;;6.32;;
37785;SDS011;23625;48.784;9.336;2023-06-04T00:51:09;11.75;;;7.32;;
37785;SDS011;23625;48.784;9.336;2023-06-04T00:53:36;13.43;;;6.25;;
37785;SDS011;23625;48.784;9.336;2023-06-04T00:56:02;13.48;;;6.45;;
37785;SDS011;23625;48.784;9.336;2023-06-04T00:58:30;13.57;;;7.32;;
37785;SDS011;23625;48.784;9.336;2023-06-04T01:00:55;9.70;;;5.95;;
37785;SDS011;23625;48.784;9.336;2023-06-04T01:03:23;15.52;;;7.07;;
37785;SDS011;23625;48.784;9.336;2023-06-04T01:05:57;16.00;;;8.02;;
37785;SDS011;23625;48.784;9.336;2023-06-04T01:08:29;9.93;;;6.88;;
37785;SDS011;23625;48.784;9.336;2023-06-04T01:10:55;11.63;;;6.53;;
37785;SDS011;23625;48.784;9.336;2023-06-04T01:13:22;15.73;;;7.10;;
37785;SDS011;23625;48.784;9.336;2023-06-04T01:15:47;11.45;;;6.63;;
37785;SDS011;23625;48.784;9.336;2023-06-04T01:18:15;17.17;;;7.65;;
37785;SDS011;23625;48.784;9.336;2023-06-04T01:20:52;10.32;;;5.88;;
37785;SDS011;23625;48.784;9.336;2023-06-04T01:26:08;12.40;;;6.07;;
37785;SDS011;23625;48.784;9.336;2023-06-04T01:28:35;9.57;;;5.43;;
37785;SDS011;23625;48.784;9.336;2023-06-04T01:31:01;20.15;;;6.80;;
37785;SDS011;23625;48.784;9.336;2023-06-04T01:33:29;15.43;;;5.93;;
37785;SDS011;23625;48.784;9.336;2023-06-04T01:35:55;9.75;;;6.18;;
37785;SDS011;23625;48.784;9.336;2023-06-04T01:38:21;10.65;;;5.53;;
37785;SDS011;23625;48.784;9.336;2023-06-04T01:40:46;10.25;;;5.55;;
37785;SDS011;23625;48.784;9.336;2023-06-04T01:43:12;11.75;;;6.28;;
37785;SDS011;23625;48.784;9.336;2023-06-04T01:45:38;11.20;;;6.35;;
37785;SDS011;23625;48.784;9.336;2023-06-04T01:48:04;12.05;;;5.53;;
37785;SDS011;23625;48.784;9.336;2023-06-04T01:50:31;11.65;;;5.22;;
37785;SDS011;23625;48.784;9.336;2023-06-04T01:52:57;16.85;;;5.45;;
37785;SDS011;23625;48.784;9.336;2023-06-04T01:55:23;11.73;;;5.65;;
37785;SDS011;23625;48.784;9.336;2023-06-04T01:57:50;11.27;;;5.47;;
37785;SDS011;23625;48.784;9.336;2023-06-04T02:00:16;15.35;;;5.72;;
37785;SDS011;23625;48.784;9.336;2023-06-04T02:02:43;10.32;;;6.15;;
37785;SDS011;23625;48.784;9.336;2023-06-04T02:05:11;15.52;;;5.45;;
37785;SDS011;23625;48.784;9.336;2023-06-04T02:07:41;9.95;;;5.82;;
37785;SDS011;23625;48.784;9.336;2023-06-04T02:10:10;11.50;;;4.38;;
37785;SDS011;23625;48.784;9.336;2023-06-04T02:12:37;10.35;;;4.97;;
37785;SDS011;23625;48.784;9.336;2023-06-04T02:15:04;8.95;;;4.78;;
37785;SDS011;23625;48.784;9.336;2023-06-04T02:17:31;9.38;;;5.22;;
37785;SDS011;23625;48.784;9.336;2023-06-04T02:19:57;15.15;;;5.60;;
37785;SDS011;23625;48.784;9.336;2023-06-04T02:22:24;11.43;;;5.72;;
37785;SDS011;23625;48.784;9.336;2023-06-04T02:24:50;9.75;;;4.25;;
37785;SDS011;23625;48.784;9.336;2023-06-04T02:27:16;13.05;;;4.53;;
37785;SDS011;23625;48.784;9.336;2023-06-04T02:29:42;8.57;;;4.47;;
37785;SDS011;23625;48.784;9.336;2023-06-04T02:32:07;10.80;;;5.85;;
37785;SDS011;23625;48.784;9.336;2023-06-04T02:34:33;9.02;;;5.80;;
37785;SDS011;23625;48.784;9.336;2023-06-04T02:36:59;11.55;;;5.20;;
37785;SDS011;23625;48.784;9.336;2023-06-04T02:39:25;11.00;;;5.75;;
37785;SDS011;23625;48.784;9.336;2023-06-04T02:41:51;14.50;;;5.13;;
37785;SDS011;23625;48.784;9.336;2023-06-04T02:44:17;9.68;;;4.80;;
37785;SDS011;23625;48.784;9.336;2023-06-04T02:46:43;8.68;;;5.10;;
37785;SDS011;23625;48.784;9.336;2023-06-04T02:49:09;8.18;;;4.72;;
37785;SDS011;23625;48.784;9.336;2023-06-04T02:51:38;10.07;;;4.80;;
37785;SDS011;23625;48.784;9.336;2023-06-04T02:54:07;6.97;;;4.65;;
37785;SDS011;23625;48.784;9.336;2023-06-04T02:56:33;9.55;;;4.75;;
37785;SDS011;23625;48.784;9.336;2023-06-04T02:59:00;12.15;;;5.30;;
37785;SDS011;23625;48.784;9.336;2023-06-04T03:01:26;8.30;;;4.45;;
37785;SDS011;23625;48.784;9.336;2023-06-04T03:03:52;9.15;;;4.10;;
37785;SDS011;23625;48.784;9.336;2023-06-04T03:06:19;11.30;;;4.75;;
37785;SDS011;23625;48.784;9.336;2023-06-04T03:08:46;8.55;;;3.80;;
37785;SDS011;23625;48.784;9.336;2023-06-04T03:11:12;7.38;;;4.25;;
37785;SDS011;23625;48.784;9.336;2023-06-04T03:13:38;7.68;;;4.00;;
37785;SDS011;23625;48.784;9.336;2023-06-04T03:16:04;10.23;;;4.90;;
37785;SDS011;23625;48.784;9.336;2023-06-04T03:18:34;11.65;;;4.47;;
37785;SDS011;23625;48.784;9.336;2023-06-04T03:21:02;9.43;;;4.43;;
37785;SDS011;23625;48.784;9.336;2023-06-04T03:23:27;8.18;;;4.72;;
37785;SDS011;23625;48.784;9.336;2023-06-04T03:25:53;8.65;;;4.47;;
37785;SDS011;23625;48.784;9.336;2023-06-04T03:28:19;8.25;;;3.85;;
37785;SDS011;23625;48.784;9.336;2023-06-04T03:30:45;8.25;;;4.00;;
37785;SDS011;23625;48.784;9.336;2023-06-04T03:33:10;9.63;;;4.22;;
37785;SDS011;23625;48.784;9.336;2023-06-04T03:35:36;16.13;;;4.78;;
37785;SDS011;23625;48.784;9.336;2023-06-04T03:38:01;11.68;;;3.65;;
37785;SDS011;23625;48.784;9.336;2023-06-04T03:40:27;9.82;;;3.95;;
37785;SDS011;23625;48.784;9.336;2023-06-04T03:42:53;12.27;;;5.03;;
37785;SDS011;23625;48.784;9.336;2023-06-04T03:45:18;9.40;;;4.10;;
37785;SDS011;23625;48.784;9.336;2023-06-04T03:47:45;8.75;;;4.10;;
37785;SDS011;23625;48.784;9.336;2023-06-04T03:50:11;9.20;;;3.38;;
37785;SDS011;23625;48.784;9.336;2023-06-04T03:52:36;9.90;;;3.92;;
37785;SDS011;23625;48.784;9.336;2023-06-04T03:55:02;10.40;;;4.32;;
37785;SDS011;23625;48.784;9.336;2023-06-04T03:57:28;13.82;;;3.95;;
37785;SDS011;23625;48.784;9.336;2023-06-04T03:59:54;8.90;;;3.72;;
37785;SDS011;23625;48.784;9.336;2023-06-04T04:02:20;8.43;;;3.33;;
37785;SDS011;23625;48.784;9.336;2023-06-04T04:04:46;5.93;;;3.53;;
37785;SDS011;23625;48.784;9.336;2023-06-04T04:07:11;14.32;;;3.97;;
37785;SDS011;23625;48.784;9.336;2023-06-04T04:09:37;8.77;;;3.47;;
37785;SDS011;23625;48.784;9.336;2023-06-04T04:12:03;8.90;;;3.30;;
37785;SDS011;23625;48.784;9.336;2023-06-04T04:14:29;8.70;;;3.67;;
37785;SDS011;23625;48.784;9.336;2023-06-04T04:16:54;8.43;;;3.65;;
37785;SDS011;23625;48.784;9.336;2023-06-04T04:19:20;9.85;;;3.58;;
37785;SDS011;23625;48.784;9.336;2023-06-04T04:21:46;8.30;;;3.97;;
37785;SDS011;23625;48.784;9.336;2023-06-04T04:24:24;11.70;;;4.15;;
37785;SDS011;23625;48.784;9.336;2023-06-04T04:26:51;8.18;;;3.75;;
37785;SDS011;23625;48.784;9.336;2023-06-04T04:29:22;6.13;;;3.25;;
37785;SDS011;23625;48.784;9.336;2023-06-04T04:31:49;13.15;;;4.22;;
37785;SDS011;23625;48.784;9.336;2023-06-04T04:34:21;6.38;;;4.05;;
37785;SDS011;23625;48.784;9.336;2023-06-04T04:36:47;7.82;;;3.40;;
37785;SDS011;23625;48.784;9.336;2023-06-04T04:39:17;9.18;;;3.85;;
37785;SDS011;23625;48.784;9.336;2023-06-04T04:41:47;6.53;;;3.17;;
37785;SDS011;23625;48.784;9.336;2023-06-04T04:44:13;5.95;;;3.40;;
37785;SDS011;23625;48.784;9.336;2023-06-04T04:46:38;7.75;;;3.88;;
37785;SDS011;23625;48.784;9.336;2023-06-04T04:49:04;11.25;;;4.43;;
37785;SDS011;23625;48.784;9.336;2023-06-04T04:51:30;12.50;;;4.10;;
37785;SDS011;23625;48.784;9.336;2023-06-04T04:53:55;6.65;;;3.35;;
37785;SDS011;23625;48.784;9.336;2023-06-04T04:56:21;9.40;;;3.65;;
37785;SDS011;23625;48.784;9.336;2023-06-04T04:58:47;10.18;;;3.33;;
37785;SDS011;23625;48.784;9.336;2023-06-04T05:01:13;6.43;;;3.03;;
37785;SDS011;23625;48.784;9.336;2023-06-04T05:03:39;8.38;;;2.72;;
37785;SDS011;23625;48.784;9.336;2023-06-04T05:06:05;6.68;;;3.58;;
37785;SDS011;23625;48.784;9.336;2023-06-04T05:08:30;6.88;;;3.05;;
37785;SDS011;23625;48.784;9.336;2023-06-04T05:10:57;6.95;;;3.20;;
37785;SDS011;23625;48.784;9.336;2023-06-04T05:13:23;8.55;;;3.55;;
37785;SDS011;23625;48.784;9.336;2023-06-04T05:15:48;15.73;;;4.00;;
37785;SDS011;23625;48.784;9.336;2023-06-04T05:18:17;6.28;;;3.13;;
37785;SDS011;23625;48.784;9.336;2023-06-04T05:20:45;9.40;;;4.00;;
37785;SDS011;23625;48.784;9.336;2023-06-04T05:23:11;12.25;;;3.53;;
37785;SDS011;23625;48.784;9.336;2023-06-04T05:25:37;7.15;;;3.03;;
37785;SDS011;23625;48.784;9.336;2023-06-04T05:28:03;9.35;;;4.30;;
37785;SDS011;23625;48.784;9.336;2023-06-04T05:30:30;7.47;;;3.80;;
37785;SDS011;23625;48.784;9.336;2023-06-04T05:32:56;6.55;;;3.33;;
37785;SDS011;23625;48.784;9.336;2023-06-04T05:35:22;6.57;;;3.95;;
37785;SDS011;23625;48.784;9.336;2023-06-04T05:37:47;11.77;;;4.20;;
37785;SDS011;23625;48.784;9.336;2023-06-04T05:40:19;12.25;;;3.70;;
37785;SDS011;23625;48.784;9.336;2023-06-04T05:42:46;7.78;;;3.55;;
37785;SDS011;23625;48.784;9.336;2023-06-04T05:45:12;6.20;;;3.10;;
37785;SDS011;23625;48.784;9.336;2023-06-04T05:47:37;7.25;;;3.50;;
37785;SDS011;23625;48.784;9.336;2023-06-04T05:50:03;8.32;;;3.65;;
37785;SDS011;23625;48.784;9.336;2023-06-04T05:52:31;8.77;;;3.78;;
37785;SDS011;23625;48.784;9.336;2023-06-04T05:54:57;6.57;;;2.75;;
37785;SDS011;23625;48.784;9.336;2023-06-04T05:57:23;11.40;;;3.83;;
37785;SDS011;23625;48.784;9.336;2023-06-04T05:59:49;12.43;;;3.28;;
37785;SDS011;23625;48.784;9.336;2023-06-04T06:02:14;6.93;;;2.80;;
37785;SDS011;23625;48.784;9.336;2023-06-04T06:04:40;10.85;;;3.10;;
37785;SDS011;23625;48.784;9.336;2023-06-04T06:07:05;8.68;;;3.17;;
37785;SDS011;23625;48.784;9.336;2023-06-04T06:09:31;9.98;;;3.25;;
37785;SDS011;23625;48.784;9.336;2023-06-04T06:11:57;6.05;;;2.67;;
37785;SDS011;23625;48.784;9.336;2023-06-04T06:14:23;6.43;;;2.47;;
37785;SDS011;23625;48.784;9.336;2023-06-04T06:16:49;7.85;;;2.78;;
37785;SDS011;23625;48.784;9.336;2023-06-04T06:19:15;7.10;;;2.40;;
37785;SDS011;23625;48.784;9.336;2023-06-04T06:21:41;5.85;;;2.40;;
37785;SDS011;23625;48.784;9.336;2023-06-04T06:24:07;4.63;;;2.35;;
37785;SDS011;23625;48.784;9.336;2023-06-04T06:26:32;6.20;;;2.60;;
37785;SDS011;23625;48.784;9.336;2023-06-04T06:28:58;5.75;;;2.20;;
37785;SDS011;23625;48.784;9.336;2023-06-04T06:31:23;7.20;;;2.53;;
37785;SDS011;23625;48.784;9.336;2023-06-04T06:33:49;7.03;;;2.17;;
37785;SDS011;23625;48.784;9.336;2023-06-04T06:36:15;5.75;;;2.55;;
37785;SDS011;23625;48.784;9.336;2023-06-04T06:38:41;6.20;;;2.13;;
37785;SDS011;23625;48.784;9.336;2023-06-04T06:41:07;6.10;;;2.10;;
37785;SDS011;23625;48.784;9.336;2023-06-04T06:43:33;6.03;;;2.22;;
37785;SDS011;23625;48.784;9.336;2023-06-04T06:45:58;4.28;;;2.15;;
37785;SDS011;23625;48.784;9.336;2023-06-04T06:48:24;5.78;;;2.28;;
37785;SDS011;23625;48.784;9.336;2023-06-04T06:50:50;4.32;;;2.45;;
37785;SDS011;23625;48.784;9.336;2023-06-04T06:53:15;3.42;;;2.05;;
37785;SDS011;23625;48.784;9.336;2023-06-04T06:55:41;2.95;;;1.80;;
37785;SDS011;23625;48.784;9.336;2023-06-04T06:58:06;5.97;;;2.20;;
37785;SDS011;23625;48.784;9.336;2023-06-04T07:00:32;5.07;;;2.03;;
37785;SDS011;23625;48.784;9.336;2023-06-04T07:02:57;11.48;;;2.35;;
37785;SDS011;23625;48.784;9.336;2023-06-04T07:05:23;11.18;;;2.65;;
37785;SDS011;23625;48.784;9.336;2023-06-04T07:07:49;7.75;;;2.15;;
37785;SDS011;23625;48.784;9.336;2023-06-04T07:10:14;5.15;;;2.05;;
37785;SDS011;23625;48.784;9.336;2023-06-04T07:12:40;5.13;;;2.20;;
37785;SDS011;23625;48.784;9.336;2023-06-04T07:15:06;6.53;;;2.00;;
37785;SDS011;23625;48.784;9.336;2023-06-04T07:17:33;3.05;;;2.08;;
37785;SDS011;23625;48.784;9.336;2023-06-04T07:19:59;5.05;;;1.95;;
37785;SDS011;23625;48.784;9.336;2023-06-04T07:22:25;5.60;;;2.10;;
37785;SDS011;23625;48.784;9.336;2023-06-04T07:24:51;7.90;;;2.38;;
37785;SDS011;23625;48.784;9.336;2023-06-04T07:27:17;5.05;;;2.20;;
37785;SDS011;23625;48.784;9.336;2023-06-04T07:29:43;7.65;;;2.10;;
37785;SDS011;23625;48.784;9.336;2023-06-04T07:32:09;4.65;;;2.08;;
37785;SDS011;23625;48.784;9.336;2023-06-04T07:34:35;4.15;;;2.00;;
37785;SDS011;23625;48.784;9.336;2023-06-04T07:37:02;3.75;;;2.03;;
37785;SDS011;23625;48.784;9.336;2023-06-04T07:39:28;4.43;;;2.50;;
37785;SDS011;23625;48.784;9.336;2023-06-04T07:41:54;7.43;;;2.47;;
37785;SDS011;23625;48.784;9.336;2023-06-04T07:44:19;5.85;;;2.83;;
37785;SDS011;23625;48.784;9.336;2023-06-04T07:46:45;4.55;;;2.50;;
37785;SDS011;23625;48.784;9.336;2023-06-04T07:49:10;7.32;;;2.22;;
37785;SDS011;23625;48.784;9.336;2023-06-04T07:51:36;5.10;;;2.38;;
37785;SDS011;23625;48.784;9.336;2023-06-04T07:54:02;10.07;;;2.38;;
37785;SDS011;23625;48.784;9.336;2023-06-04T07:56:28;3.92;;;2.22;;
37785;SDS011;23625;48.784;9.336;2023-06-04T07:58:53;3.75;;;2.13;;
37785;SDS011;23625;48.784;9.336;2023-06-04T08:01:19;4.50;;;2.15;;
37785;SDS011;23625;48.784;9.336;2023-06-04T08:03:45;4.63;;;2.25;;
37785;SDS011;23625;48.784;9.336;2023-06-04T08:06:10;5.38;;;2.60;;
37785;SDS011;23625;48.784;9.336;2023-06-04T08:08:41;4.93;;;2.13;;
37785;SDS011;23625;48.784;9.336;2023-06-04T08:11:11;4.35;;;2.00;;
37785;SDS011;23625;48.784;9.336;2023-06-04T08:13:37;4.00;;;2.33;;
37785;SDS011;23625;48.784;9.336;2023-06-04T08:16:04;4.25;;;2.08;;
37785;SDS011;23625;48.784;9.336;2023-06-04T08:18:30;4.85;;;2.17;;
37785;SDS011;23625;48.784;9.336;2023-06-04T08:20:55;7.80;;;2.53;;
37785;SDS011;23625;48.784;9.336;2023-06-04T08:23:21;5.85;;;2.35;;
37785;SDS011;23625;48.784;9.336;2023-06-04T08:25:47;8.65;;;2.45;;
37785;SDS011;23625;48.784;9.336;2023-06-04T08:28:15;4.90;;;2.42;;
37785;SDS011;23625;48.784;9.336;2023-06-04T08:30:44;10.68;;;2.58;;
37785;SDS011;23625;48.784;9.336;2023-06-04T08:33:10;7.00;;;2.65;;
37785;SDS011;23625;48.784;9.336;2023-06-04T08:35:36;3.78;;;2.47;;
37785;SDS011;23625;48.784;9.336;2023-06-04T08:38:01;4.75;;;2.50;;
37785;SDS011;23625;48.784;9.336;2023-06-04T08:40:27;3.33;;;2.03;;
37785;SDS011;23625;48.784;9.336;2023-06-04T08:42:54;7.25;;;2.80;;
37785;SDS011;23625;48.784;9.336;2023-06-04T08:45:23;12.18;;;4.10;;
37785;SDS011;23625;48.784;9.336;2023-06-04T08:47:49;3.00;;;2.30;;
37785;SDS011;23625;48.784;9.336;2023-06-04T08:50:19;6.05;;;2.40;;
37785;SDS011;23625;48.784;9.336;2023-06-04T08:52:46;5.22;;;2.50;;
37785;SDS011;23625;48.784;9.336;2023-06-04T08:55:13;5.75;;;2.20;;
37785;SDS011;23625;48.784;9.336;2023-06-04T08:57:39;5.68;;;3.05;;
37785;SDS011;23625;48.784;9.336;2023-06-04T09:00:06;5.88;;;2.55;;
37785;SDS011;23625;48.784;9.336;2023-06-04T09:02:33;6.50;;;2.17;;
37785;SDS011;23625;48.784;9.336;2023-06-04T09:05:02;8.02;;;2.65;;
37785;SDS011;23625;48.784;9.336;2023-06-04T09:07:29;5.38;;;2.40;;
37785;SDS011;23625;48.784;9.336;2023-06-04T09:09:56;6.07;;;2.90;;
37785;SDS011;23625;48.784;9.336;2023-06-04T09:12:23;4.50;;;2.53;;
37785;SDS011;23625;48.784;9.336;2023-06-04T09:14:50;3.50;;;2.55;;
37785;SDS011;23625;48.784;9.336;2023-06-04T09:17:20;5.80;;;2.50;;
37785;SDS011;23625;48.784;9.336;2023-06-04T09:19:47;4.15;;;2.30;;
37785;SDS011;23625;48.784;9.336;2023-06-04T09:22:13;9.13;;;2.92;;
37785;SDS011;23625;48.784;9.336;2023-06-04T09:24:39;8.35;;;2.38;;
37785;SDS011;23625;48.784;9.336;2023-06-04T09:27:13;8.65;;;2.92;;
37785;SDS011;23625;48.784;9.336;2023-06-04T09:29:39;4.07;;;2.40;;
37785;SDS011;23625;48.784;9.336;2023-06-04T09:32:05;4.32;;;2.63;;
37785;SDS011;23625;48.784;9.336;2023-06-04T09:34:31;3.53;;;2.50;;
37785;SDS011;23625;48.784;9.336;2023-06-04T09:36:57;4.68;;;2.45;;
37785;SDS011;23625;48.784;9.336;2023-06-04T09:39:23;4.45;;;2.40;;
37785;SDS011;23625;48.784;9.336;2023-06-04T09:41:59;5.63;;;2.40;;
37785;SDS011;23625;48.784;9.336;2023-06-04T09:44:26;4.07;;;2.70;;
37785;SDS011;23625;48.784;9.336;2023-06-04T09:46:57;3.80;;;2.42;;
37785;SDS011;23625;48.784;9.336;2023-06-04T09:49:23;6.35;;;2.70;;
37785;SDS011;23625;48.784;9.336;2023-06-04T09:51:49;4.38;;;3.05;;
37785;SDS011;23625;48.784;9.336;2023-06-04T09:54:15;5.05;;;3.50;;
37785;SDS011;23625;48.784;9.336;2023-06-04T09:56:41;5.55;;;2.83;;
37785;SDS011;23625;48.784;9.336;2023-06-04T09:59:10;6.72;;;2.45;;
37785;SDS011;23625;48.784;9.336;2023-06-04T10:01:40;5.55;;;3.13;;
37785;SDS011;23625;48.784;9.336;2023-06-04T10:04:07;8.75;;;3.40;;
37785;SDS011;23625;48.784;9.336;2023-06-04T10:06:34;5.32;;;3.35;;
37785;SDS011;23625;48.784;9.336;2023-06-04T10:09:07;10.15;;;3.50;;
37785;SDS011;23625;48.784;9.336;2023-06-04T10:11:34;6.45;;;3.13;;
37785;SDS011;23625;48.784;9.336;2023-06-04T10:14:22;6.45;;;3.05;;
37785;SDS011;23625;48.784;9.336;2023-06-04T10:16:51;8.63;;;3.03;;
37785;SDS011;23625;48.784;9.336;2023-06-04T10:19:18;5.80;;;3.10;;
37785;SDS011;23625;48.784;9.336;2023-06-04T10:21:43;5.20;;;3.08;;
37785;SDS011;23625;48.784;9.336;2023-06-04T10:24:10;4.22;;;3.00;;
37785;SDS011;23625;48.784;9.336;2023-06-04T10:26:37;8.10;;;2.97;;
37785;SDS011;23625;48.784;9.336;2023-06-04T10:29:05;4.68;;;3.03;;
37785;SDS011;23625;48.784;9.336;2023-06-04T10:31:31;4.07;;;2.75;;
37785;SDS011;23625;48.784;9.336;2023-06-04T10:33:57;9.38;;;3.42;;
37785;SDS011;23625;48.784;9.336;2023-06-04T10:36:24;8.63;;;3.20;;
37785;SDS011;23625;48.784;9.336;2023-06-04T10:38:53;5.65;;;2.97;;
37785;SDS011;23625;48.784;9.336;2023-06-04T10:41:20;7.70;;;2.92;;
37785;SDS011;23625;48.784;9.336;2023-06-04T10:43:51;6.70;;;3.03;;
37785;SDS011;23625;48.784;9.336;2023-06-04T10:46:25;7.00;;;3.53;;
37785;SDS011;23625;48.784;9.336;2023-06-04T10:49:01;5.30;;;2.90;;
37785;SDS011;23625;48.784;9.336;2023-06-04T10:51:30;9.55;;;3.60;;
37785;SDS011;23625;48.784;9.336;2023-06-04T10:53:58;8.55;;;2.88;;
37785;SDS011;23625;48.784;9.336;2023-06-04T10:56:25;8.48;;;3.17;;
37785;SDS011;23625;48.784;9.336;2023-06-04T10:58:57;4.93;;;3.00;;
37785;SDS011;23625;48.784;9.336;2023-06-04T11:01:26;10.77;;;2.88;;
37785;SDS011;23625;48.784;9.336;2023-06-04T11:03:53;3.95;;;3.00;;
37785;SDS011;23625;48.784;9.336;2023-06-04T11:06:22;8.63;;;3.22;;
37785;SDS011;23625;48.784;9.336;2023-06-04T11:09:01;8.82;;;3.13;;
37785;SDS011;23625;48.784;9.336;2023-06-04T11:11:30;5.45;;;3.17;;
37785;SDS011;23625;48.784;9.336;2023-06-04T11:14:06;4.40;;;3.15;;
37785;SDS011;23625;48.784;9.336;2023-06-04T11:16:33;5.60;;;3.30;;
37785;SDS011;23625;48.784;9.336;2023-06-04T11:18:59;9.85;;;3.72;;
37785;SDS011;23625;48.784;9.336;2023-06-04T11:21:25;6.05;;;3.22;;
37785;SDS011;23625;48.784;9.336;2023-06-04T11:24:00;4.93;;;3.00;;
37785;SDS011;23625;48.784;9.336;2023-06-04T11:26:32;5.40;;;3.47;;
37785;SDS011;23625;48.784;9.336;2023-06-04T11:28:59;10.15;;;3.88;;
37785;SDS011;23625;48.784;9.336;2023-06-04T11:31:25;6.97;;;3.20;;
37785;SDS011;23625;48.784;9.336;2023-06-04T11:33:51;4.03;;;3.03;;
37785;SDS011;23625;48.784;9.336;2023-06-04T11:36:23;7.57;;;3.42;;
37785;SDS011;23625;48.784;9.336;2023-06-04T11:38:55;8.45;;;3.40;;
37785;SDS011;23625;48.784;9.336;2023-06-04T11:41:22;6.00;;;3.05;;
37785;SDS011;23625;48.784;9.336;2023-06-04T11:43:48;11.73;;;3.83;;
37785;SDS011;23625;48.784;9.336;2023-06-04T11:46:14;7.18;;;3.40;;
37785;SDS011;23625;48.784;9.336;2023-06-04T11:48:40;7.85;;;3.50;;
37785;SDS011;23625;48.784;9.336;2023-06-04T11:51:06;8.13;;;3.20;;
37785;SDS011;23625;48.784;9.336;2023-06-04T11:53:36;6.40;;;3.63;;
37785;SDS011;23625;48.784;9.336;2023-06-04T11:56:03;4.35;;;3.00;;
37785;SDS011;23625;48.784;9.336;2023-06-04T11:58:29;10.88;;;3.30;;
37785;SDS011;23625;48.784;9.336;2023-06-04T12:00:56;6.60;;;2.90;;
37785;SDS011;23625;48.784;9.336;2023-06-04T12:03:33;7.85;;;3.45;;
37785;SDS011;23625;48.784;9.336;2023-06-04T12:08:47;6.65;;;2.80;;
37785;SDS011;23625;48.784;9.336;2023-06-04T12:13:52;6.40;;;3.40;;
37785;SDS011;23625;48.784;9.336;2023-06-04T12:16:19;7.55;;;3.40;;
37785;SDS011;23625;48.784;9.336;2023-06-04T12:18:45;10.57;;;3.72;;
37785;SDS011;23625;48.784;9.336;2023-06-04T12:21:17;7.75;;;3.35;;
37785;SDS011;23625;48.784;9.336;2023-06-04T12:23:47;6.50;;;3.47;;
37785;SDS011;23625;48.784;9.336;2023-06-04T12:26:22;8.60;;;3.45;;
37785;SDS011;23625;48.784;9.336;2023-06-04T12:29:00;7.85;;;3.58;;
37785;SDS011;23625;48.784;9.336;2023-06-04T12:31:46;4.57;;;3.10;;
37785;SDS011;23625;48.784;9.336;2023-06-04T12:34:14;6.00;;;3.70;;
37785;SDS011;23625;48.784;9.336;2023-06-04T12:36:42;6.70;;;3.20;;
37785;SDS011;23625;48.784;9.336;2023-06-04T12:39:08;7.40;;;3.72;;
37785;SDS011;23625;48.784;9.336;2023-06-04T12:41:34;7.20;;;3.78;;
37785;SDS011;23625;48.784;9.336;2023-06-04T12:44:00;8.70;;;3.38;;
37785;SDS011;23625;48.784;9.336;2023-06-04T12:46:26;8.60;;;3.35;;
37785;SDS011;23625;48.784;9.336;2023-06-04T12:48:52;5.95;;;3.40;;
37785;SDS011;23625;48.784;9.336;2023-06-04T12:51:19;6.05;;;3.50;;
37785;SDS011;23625;48.784;9.336;2023-06-04T12:53:45;6.85;;;3.75;;
37785;SDS011;23625;48.784;9.336;2023-06-04T12:56:12;6.93;;;3.70;;
37785;SDS011;23625;48.784;9.336;2023-06-04T12:58:37;8.88;;;3.88;;
37785;SDS011;23625;48.784;9.336;2023-06-04T13:01:03;8.77;;;4.10;;
37785;SDS011;23625;48.784;9.336;2023-06-04T13:03:30;6.32;;;3.92;;
37785;SDS011;23625;48.784;9.336;2023-06-04T13:05:55;7.93;;;3.75;;
37785;SDS011;23625;48.784;9.336;2023-06-04T13:08:22;17.25;;;10.50;;
37785;SDS011;23625;48.784;9.336;2023-06-04T13:10:48;7.57;;;4.47;;
37785;SDS011;23625;48.784;9.336;2023-06-04T13:13:15;5.35;;;3.60;;
37785;SDS011;23625;48.784;9.336;2023-06-04T13:15:44;16.45;;;8.35;;
37785;SDS011;23625;48.784;9.336;2023-06-04T13:18:10;6.85;;;3.40;;
37785;SDS011;23625;48.784;9.336;2023-06-04T13:20:37;4.88;;;3.60;;
37785;SDS011;23625;48.784;9.336;2023-06-04T13:23:04;6.85;;;4.00;;
37785;SDS011;23625;48.784;9.336;2023-06-04T13:25:30;9.38;;;4.05;;
37785;SDS011;23625;48.784;9.336;2023-06-04T13:27:57;4.85;;;3.03;;
37785;SDS011;23625;48.784;9.336;2023-06-04T13:30:26;8.57;;;3.63;;
37785;SDS011;23625;48.784;9.336;2023-06-04T13:32:52;7.18;;;3.67;;
37785;SDS011;23625;48.784;9.336;2023-06-04T13:35:18;6.88;;;3.10;;
37785;SDS011;23625;48.784;9.336;2023-06-04T13:37:44;6.78;;;3.63;;
37785;SDS011;23625;48.784;9.336;2023-06-04T13:40:09;10.02;;;7.32;;
37785;SDS011;23625;48.784;9.336;2023-06-04T13:42:35;8.25;;;4.07;;
37785;SDS011;23625;48.784;9.336;2023-06-04T13:45:01;6.65;;;3.90;;
37785;SDS011;23625;48.784;9.336;2023-06-04T13:47:27;5.47;;;3.38;;
37785;SDS011;23625;48.784;9.336;2023-06-04T13:49:52;7.63;;;4.45;;
37785;SDS011;23625;48.784;9.336;2023-06-04T13:52:18;6.70;;;3.40;;
37785;SDS011;23625;48.784;9.336;2023-06-04T13:54:43;6.13;;;3.75;;
37785;SDS011;23625;48.784;9.336;2023-06-04T13:57:09;6.15;;;3.05;;
37785;SDS011;23625;48.784;9.336;2023-06-04T13:59:38;6.90;;;3.78;;
37785;SDS011;23625;48.784;9.336;2023-06-04T14:02:04;13.02;;;3.15;;
37785;SDS011;23625;48.784;9.336;2023-06-04T14:04:30;5.05;;;2.97;;
37785;SDS011;23625;48.784;9.336;2023-06-04T14:06:55;6.63;;;3.13;;
37785;SDS011;23625;48.784;9.336;2023-06-04T14:09:21;5.03;;;3.28;;
37785;SDS011;23625;48.784;9.336;2023-06-04T14:11:46;7.35;;;3.25;;
37785;SDS011;23625;48.784;9.336;2023-06-04T14:14:15;8.93;;;3.58;;
37785;SDS011;23625;48.784;9.336;2023-06-04T14:16:42;5.57;;;3.30;;
37785;SDS011;23625;48.784;9.336;2023-06-04T14:19:08;5.45;;;3.53;;
37785;SDS011;23625;48.784;9.336;2023-06-04T14:21:33;6.75;;;3.28;;
37785;SDS011;23625;48.784;9.336;2023-06-04T14:24:01;6.68;;;3.28;;
37785;SDS011;23625;48.784;9.336;2023-06-04T14:26:26;5.68;;;3.35;;
37785;SDS011;23625;48.784;9.336;2023-06-04T14:28:52;6.30;;;3.35;;
37785;SDS011;23625;48.784;9.336;2023-06-04T14:31:18;6.57;;;3.20;;
37785;SDS011;23625;48.784;9.336;2023-06-04T14:33:44;5.55;;;3.05;;
37785;SDS011;23625;48.784;9.336;2023-06-04T14:36:09;5.50;;;3.20;;
37785;SDS011;23625;48.784;9.336;2023-06-04T14:38:35;9.30;;;3.30;;
37785;SDS011;23625;48.784;9.336;2023-06-04T14:41:02;5.55;;;3.60;;
37785;SDS011;23625;48.784;9.336;2023-06-04T14:43:27;6.32;;;3.28;;
37785;SDS011;23625;48.784;9.336;2023-06-04T14:45:53;6.30;;;3.20;;
37785;SDS011;23625;48.784;9.336;2023-06-04T14:48:19;5.03;;;3.60;;
37785;SDS011;23625;48.784;9.336;2023-06-04T14:50:44;6.35;;;3.08;;